Pagrindinis puslapis
METAR-TAF:

METAR-TAF

Oro uostai :

Pembrey, Velsas

platuma: 51-43N, ilguma: 004-22W, Aukštis: 3 m

Dabartinis oras

Ataskaita buvo paskelbta 28 minutes, ne 06:50 UTC
Vėjas 16 kt iš Pietryčių su gūsio iki 27 kt
Temperatūra 5°C
Drėgmė 100%
Slėgis 1004 hPa
Matomumas: 3000 m

METAR: EGOP 280650Z AUTO 13016G27KT 3000 // BKN018/// 05/05 Q1004

Laikas: 07:18 (07:18 UTC)


TAF: trūkstamas

Orai ataskaitas ir orų prognozės (METAR, TAF).

turimą stotys yra geltonos ir raudonos taškus žemėlapyje.

Perkelti pele per norėdami pamatyti stoties vardą.

Tada spustelėkite, norėdami matyti oro stebėjimo ir prognozės.

Norėdami pakeisti žemėlapį: spustelėkite ant žalios mygtukų su juodo kryžiaus žemyn,; žalią mygtuką su brūkšneliu, jei norite nutolinti; arba žalių rodyklių gretimoms žemėlapius.


METAR-TAF: